Terminal Aerodrome Forecast
Issued by NWS Charleston, WV

Current Version | Previous Version | Text Only | Print | Product List | Glossary Off
Versions: 1 2 3 4 5 6 7 8 9 10 11 12 13 14 15 16 17 18 19 20 21

000
FTUS41 KRLX 240300 AAB
TAFBKW
TAF AMD
KBKW 240305Z 2403/2424 13006KT 6SM -RAPL BR BKN035 OVC050
     FM240800 10004KT 1SM -SN BR OVC003
     FM241100 34008KT 2SM -SN BR OVC003
     FM241400 31010G15KT 3SM -SN BR OVC008
     FM241600 30011G17KT 6SM -RASN BR BKN010=

USA.gov is the U.S. government's official web portal to all federal, state and local government web resources and services.